Doris Moran — WRU2125 — position and weather

sailwx.info

Track history (hours):
 
Tides and Currents Weather Stations Pressure Air Temp Water Temp Dewpoint Dewpoint Depression Visibility Wind Speed Wind Dir Waves Ship Positions

Doris Moran

More information available from US FCC via Universal Licensing System and Coast Guard Vessel Documentation Center.

Last reported at 2014-Sep-17 17:07 UTC. Time now 2014-Sep-17 17:41 UTC.
Position N 40°40' W 074°02'.

Length 36 m; draft 15 m.

Type: Other ship. MMSI: 366939790.

Date/timePositionNaut miles runAvg speedWind from/ knotsBaromVisibWave heightAir tempDewpointWater temp
2014-Sep-17 17:07N 40°40' W 074°02'0 0.0
2014-Sep-17 13:22N 40°40' W 074°02'0 0.0
2014-Sep-17 12:26N 40°40' W 074°02'0 0.0
2014-Sep-17 11:27N 40°40' W 074°02'0 0.0
2014-Sep-17 10:32N 40°40' W 074°02'0 0.1
2014-Sep-17 09:33N 40°40' W 074°02'0 0.0
2014-Sep-17 08:18N 40°40' W 074°02'0 0.0
2014-Sep-17 07:23N 40°40' W 074°02'0 0.3
2014-Sep-17 06:15N 40°41' W 074°02'30 0.9
2014-Sep-15 20:31N 41°10' W 073°55'30 9.0
2014-Sep-15 17:09N 40°40' W 074°00'0 0.0
2014-Sep-15 16:32N 40°40' W 074°00'0 0.0
2014-Sep-15 15:31N 40°40' W 074°00'5 4.9
2014-Sep-15 14:29N 40°39' W 074°07'0 0.1
2014-Sep-15 13:28N 40°39' W 074°07'0 0.2
2014-Sep-15 12:33N 40°39' W 074°07'1 0.9
2014-Sep-15 11:31N 40°38' W 074°08'3 1.8
2014-Sep-15 10:06N 40°41' W 074°09'1 2.0
2014-Sep-15 09:33N 40°40' W 074°09'2 0.5
2014-Sep-15 06:24N 40°38' W 074°08'2 2.5
2014-Sep-15 05:33N 40°39' W 074°05'4 1.6
2014-Sep-15 03:11N 40°40' W 074°00'0 0.0
2014-Sep-15 02:22N 40°40' W 074°00'0 0.0
2014-Sep-15 01:30N 40°40' W 074°00'0 0.0
2014-Sep-15 00:22N 40°40' W 074°00'0 0.0
2014-Sep-14 23:28N 40°40' W 074°00'0 0.0
2014-Sep-14 22:24N 40°40' W 074°00'0 0.0
2014-Sep-14 21:33N 40°40' W 074°00'0 0.0
2014-Sep-14 20:30N 40°40' W 074°00'0 0.0
2014-Sep-14 19:29N 40°40' W 074°00'0 0.0
2014-Sep-14 17:29N 40°40' W 074°00'10 1.8
2014-Sep-14 12:13N 40°48' W 073°53'5 7.0
2014-Sep-14 11:30N 40°49' W 073°47'19 6.4
2014-Sep-14 08:33N 40°60' W 073°27'5 5.4
2014-Sep-14 07:33N 41°02' W 073°20'6 5.6
2014-Sep-14 06:33N 41°03' W 073°13'6 6.2
2014-Sep-14 05:33N 41°06' W 073°05'6 6.2
2014-Sep-14 04:33N 41°09' W 072°59'6 5.6
2014-Sep-14 03:33N 41°14' W 072°55'4 3.3
2014-Sep-14 02:29N 41°18' W 072°54'0 0.0
2014-Sep-14 01:33N 41°18' W 072°54'0 0.0
2014-Sep-13 21:33N 41°18' W 072°54'0 0.0
2014-Sep-13 20:03N 41°18' W 072°54'0 0.0
2014-Sep-13 19:30N 41°18' W 072°54'0 0.0
2014-Sep-13 18:29N 41°18' W 072°54'0 0.0
2014-Sep-13 17:30N 41°18' W 072°54'0 0.0
2014-Sep-13 16:09N 41°18' W 072°54'0 0.0
2014-Sep-13 15:33N 41°18' W 072°54'0 0.0
2014-Sep-13 14:31N 41°18' W 072°54'0 0.0
2014-Sep-13 13:33N 41°18' W 072°54'4 4.5
2014-Sep-13 12:33N 41°13' W 072°54'6 5.6
2014-Sep-13 11:33N 41°11' W 072°47'8 8.4
2014-Sep-13 10:33N 41°11' W 072°36'8 7.6
2014-Sep-13 09:33N 41°11' W 072°26'8 7.6
2014-Sep-13 08:33N 41°13' W 072°16'9 8.8
2014-Sep-13 07:33N 41°14' W 072°05'10 9.6
2014-Sep-13 06:33N 41°16' W 071°52'1010.1
2014-Sep-13 05:33N 41°17' W 071°39'10 9.9
2014-Sep-13 04:33N 41°18' W 071°26'10 9.5
2014-Sep-13 03:33N 41°21' W 071°14'9 9.3
2014-Sep-13 02:33N 41°25' W 071°03'8 8.3
2014-Sep-13 01:33N 41°30' W 070°53'6 5.9
2014-Sep-13 00:33N 41°33' W 070°47'11 7.1
2014-Sep-12 23:04N 41°42' W 070°40'41 6.9
2014-Sep-12 17:07N 42°22' W 070°49'10 0.4
2014-Sep-11 15:29N 42°23' W 071°03'0 0.0
2014-Sep-11 14:33N 42°23' W 071°03'1 0.0
2014-Sep-10 23:10N 42°23' W 071°04'2 2.5
2014-Sep-10 22:25N 42°21' W 071°02'4 4.1
2014-Sep-10 21:31N 42°20' W 070°58'6 4.2
2014-Sep-10 20:11N 42°23' W 070°51'5 7.2
2014-Sep-10 19:30N 42°21' W 070°45'7 7.6
2014-Sep-10 18:32N 42°15' W 070°39'8 7.8
2014-Sep-10 17:31N 42°09' W 070°32'8 7.8
2014-Sep-10 16:33N 42°02' W 070°29'8 8.1
2014-Sep-10 15:33N 41°54' W 070°28'7 6.8
2014-Sep-10 14:33N 41°47' W 070°28'6 6.4
2014-Sep-10 13:32N 41°45' W 070°36'6 6.1
2014-Sep-10 12:32N 41°40' W 070°41'5 4.9
2014-Sep-10 11:32N 41°35' W 070°43'19 4.4
2014-Sep-10 07:16N 41°24' W 071°03'3 4.3
2014-Sep-10 06:31N 41°23' W 071°07'4 4.6
2014-Sep-10 05:33N 41°21' W 071°12'4 4.5
2014-Sep-10 04:33N 41°19' W 071°18'4 4.4
2014-Sep-10 03:33N 41°18' W 071°23'4 4.3
2014-Sep-10 02:33N 41°18' W 071°29'4 4.1
2014-Sep-10 01:33N 41°18' W 071°34'4 4.0
2014-Sep-10 00:33N 41°17' W 071°40'4 4.2
2014-Sep-09 23:33N 41°16' W 071°45'4 4.2
2014-Sep-09 22:33N 41°15' W 071°51'6 5.6
2014-Sep-09 21:33N 41°15' W 071°58'8 8.1
2014-Sep-09 20:33N 41°13' W 072°09'1010.0
2014-Sep-09 19:33N 41°10' W 072°21'10 9.7
2014-Sep-09 18:33N 41°08' W 072°34'9 8.6
2014-Sep-09 17:33N 41°06' W 072°45'8 7.9
2014-Sep-09 16:33N 41°04' W 072°55'7 7.4
2014-Sep-09 15:33N 41°02' W 073°05'7 7.0
2014-Sep-09 14:33N 41°01' W 073°14'7 6.9
2014-Sep-09 13:33N 41°00' W 073°23'6 6.3
2014-Sep-09 12:33N 40°58' W 073°31'5 5.2
2014-Sep-09 11:34N 40°56' W 073°37'3 3.1
2014-Sep-09 10:33N 40°54' W 073°40'8 7.7
2014-Sep-09 09:31N 40°48' W 073°47'7 6.8
2014-Sep-09 08:33N 40°47' W 073°56'3 2.9
2014-Sep-09 07:33N 40°45' W 073°58'3 3.1
2014-Sep-09 06:34N 40°42' W 074°00'25 5.9
2014-Sep-09 02:23N 41°06' W 073°53'2 2.6
2014-Sep-09 01:29N 41°08' W 073°53'2 2.6
2014-Sep-09 00:33N 41°10' W 073°55'  
Track history (hours):
 
Tides and Currents Weather Stations Pressure Air Temp Water Temp Dewpoint Dewpoint Depression Visibility Wind Speed Wind Dir Waves Ship Positions

Doris Moran

More information available from US FCC via Universal Licensing System and Coast Guard Vessel Documentation Center.

Last reported at 2014-Sep-17 17:07 UTC. Time now 2014-Sep-17 17:41 UTC.
Position N 40°40' W 074°02'.

Length 36 m; draft 15 m.

Type: Other ship. MMSI: 366939790.

Date/timePositionNaut miles runAvg speedWind from/ knotsBaromVisibWave heightAir tempDewpointWater temp
2014-Sep-17 17:07N 40°40' W 074°02'0 0.0
2014-Sep-17 13:22N 40°40' W 074°02'0 0.0
2014-Sep-17 12:26N 40°40' W 074°02'0 0.0
2014-Sep-17 11:27N 40°40' W 074°02'0 0.0
2014-Sep-17 10:32N 40°40' W 074°02'0 0.1
2014-Sep-17 09:33N 40°40' W 074°02'0 0.0
2014-Sep-17 08:18N 40°40' W 074°02'0 0.0
2014-Sep-17 07:23N 40°40' W 074°02'0 0.3
2014-Sep-17 06:15N 40°41' W 074°02'30 0.9
2014-Sep-15 20:31N 41°10' W 073°55'30 9.0
2014-Sep-15 17:09N 40°40' W 074°00'0 0.0
2014-Sep-15 16:32N 40°40' W 074°00'0 0.0
2014-Sep-15 15:31N 40°40' W 074°00'5 4.9
2014-Sep-15 14:29N 40°39' W 074°07'0 0.1
2014-Sep-15 13:28N 40°39' W 074°07'0 0.2
2014-Sep-15 12:33N 40°39' W 074°07'1 0.9
2014-Sep-15 11:31N 40°38' W 074°08'3 1.8
2014-Sep-15 10:06N 40°41' W 074°09'1 2.0
2014-Sep-15 09:33N 40°40' W 074°09'2 0.5
2014-Sep-15 06:24N 40°38' W 074°08'2 2.5
2014-Sep-15 05:33N 40°39' W 074°05'4 1.6
2014-Sep-15 03:11N 40°40' W 074°00'0 0.0
2014-Sep-15 02:22N 40°40' W 074°00'0 0.0
2014-Sep-15 01:30N 40°40' W 074°00'0 0.0
2014-Sep-15 00:22N 40°40' W 074°00'0 0.0
2014-Sep-14 23:28N 40°40' W 074°00'0 0.0
2014-Sep-14 22:24N 40°40' W 074°00'0 0.0
2014-Sep-14 21:33N 40°40' W 074°00'0 0.0
2014-Sep-14 20:30N 40°40' W 074°00'0 0.0
2014-Sep-14 19:29N 40°40' W 074°00'0 0.0
2014-Sep-14 17:29N 40°40' W 074°00'10 1.8
2014-Sep-14 12:13N 40°48' W 073°53'5 7.0
2014-Sep-14 11:30N 40°49' W 073°47'19 6.4
2014-Sep-14 08:33N 40°60' W 073°27'5 5.4
2014-Sep-14 07:33N 41°02' W 073°20'6 5.6
2014-Sep-14 06:33N 41°03' W 073°13'6 6.2
2014-Sep-14 05:33N 41°06' W 073°05'6 6.2
2014-Sep-14 04:33N 41°09' W 072°59'6 5.6
2014-Sep-14 03:33N 41°14' W 072°55'4 3.3
2014-Sep-14 02:29N 41°18' W 072°54'0 0.0
2014-Sep-14 01:33N 41°18' W 072°54'0 0.0
2014-Sep-13 21:33N 41°18' W 072°54'0 0.0
2014-Sep-13 20:03N 41°18' W 072°54'0 0.0
2014-Sep-13 19:30N 41°18' W 072°54'0 0.0
2014-Sep-13 18:29N 41°18' W 072°54'0 0.0
2014-Sep-13 17:30N 41°18' W 072°54'0 0.0
2014-Sep-13 16:09N 41°18' W 072°54'0 0.0
2014-Sep-13 15:33N 41°18' W 072°54'0 0.0
2014-Sep-13 14:31N 41°18' W 072°54'0 0.0
2014-Sep-13 13:33N 41°18' W 072°54'4 4.5
2014-Sep-13 12:33N 41°13' W 072°54'6 5.6
2014-Sep-13 11:33N 41°11' W 072°47'8 8.4
2014-Sep-13 10:33N 41°11' W 072°36'8 7.6
2014-Sep-13 09:33N 41°11' W 072°26'8 7.6
2014-Sep-13 08:33N 41°13' W 072°16'9 8.8
2014-Sep-13 07:33N 41°14' W 072°05'10 9.6
2014-Sep-13 06:33N 41°16' W 071°52'1010.1
2014-Sep-13 05:33N 41°17' W 071°39'10 9.9
2014-Sep-13 04:33N 41°18' W 071°26'10 9.5
2014-Sep-13 03:33N 41°21' W 071°14'9 9.3
2014-Sep-13 02:33N 41°25' W 071°03'8 8.3
2014-Sep-13 01:33N 41°30' W 070°53'6 5.9
2014-Sep-13 00:33N 41°33' W 070°47'11 7.1
2014-Sep-12 23:04N 41°42' W 070°40'41 6.9
2014-Sep-12 17:07N 42°22' W 070°49'10 0.4
2014-Sep-11 15:29N 42°23' W 071°03'0 0.0
2014-Sep-11 14:33N 42°23' W 071°03'1 0.0
2014-Sep-10 23:10N 42°23' W 071°04'2 2.5
2014-Sep-10 22:25N 42°21' W 071°02'4 4.1
2014-Sep-10 21:31N 42°20' W 070°58'6 4.2
2014-Sep-10 20:11N 42°23' W 070°51'5 7.2
2014-Sep-10 19:30N 42°21' W 070°45'7 7.6
2014-Sep-10 18:32N 42°15' W 070°39'8 7.8
2014-Sep-10 17:31N 42°09' W 070°32'8 7.8
2014-Sep-10 16:33N 42°02' W 070°29'8 8.1
2014-Sep-10 15:33N 41°54' W 070°28'7 6.8
2014-Sep-10 14:33N 41°47' W 070°28'6 6.4
2014-Sep-10 13:32N 41°45' W 070°36'6 6.1
2014-Sep-10 12:32N 41°40' W 070°41'5 4.9
2014-Sep-10 11:32N 41°35' W 070°43'19 4.4
2014-Sep-10 07:16N 41°24' W 071°03'3 4.3
2014-Sep-10 06:31N 41°23' W 071°07'4 4.6
2014-Sep-10 05:33N 41°21' W 071°12'4 4.5
2014-Sep-10 04:33N 41°19' W 071°18'4 4.4
2014-Sep-10 03:33N 41°18' W 071°23'4 4.3
2014-Sep-10 02:33N 41°18' W 071°29'4 4.1
2014-Sep-10 01:33N 41°18' W 071°34'4 4.0
2014-Sep-10 00:33N 41°17' W 071°40'4 4.2
2014-Sep-09 23:33N 41°16' W 071°45'4 4.2
2014-Sep-09 22:33N 41°15' W 071°51'6 5.6
2014-Sep-09 21:33N 41°15' W 071°58'8 8.1
2014-Sep-09 20:33N 41°13' W 072°09'1010.0
2014-Sep-09 19:33N 41°10' W 072°21'10 9.7
2014-Sep-09 18:33N 41°08' W 072°34'9 8.6
2014-Sep-09 17:33N 41°06' W 072°45'8 7.9
2014-Sep-09 16:33N 41°04' W 072°55'7 7.4
2014-Sep-09 15:33N 41°02' W 073°05'7 7.0
2014-Sep-09 14:33N 41°01' W 073°14'7 6.9
2014-Sep-09 13:33N 41°00' W 073°23'6 6.3
2014-Sep-09 12:33N 40°58' W 073°31'5 5.2
2014-Sep-09 11:34N 40°56' W 073°37'3 3.1
2014-Sep-09 10:33N 40°54' W 073°40'8 7.7
2014-Sep-09 09:31N 40°48' W 073°47'7 6.8
2014-Sep-09 08:33N 40°47' W 073°56'3 2.9
2014-Sep-09 07:33N 40°45' W 073°58'3 3.1
2014-Sep-09 06:34N 40°42' W 074°00'25 5.9
2014-Sep-09 02:23N 41°06' W 073°53'2 2.6
2014-Sep-09 01:29N 41°08' W 073°53'2 2.6
2014-Sep-09 00:33N 41°10' W 073°55'  

Dump ship's entire track history